sensor_id;sensor_type;location;lat;lon;timestamp;temperature;humidity
8178;DHT22;4130;48.740;9.132;2023-04-03T00:01:35;3.60;99.90
8178;DHT22;4130;48.740;9.132;2023-04-03T00:04:03;3.60;99.90
8178;DHT22;4130;48.740;9.132;2023-04-03T00:06:30;3.60;99.90
8178;DHT22;4130;48.740;9.132;2023-04-03T00:08:58;3.60;99.90
8178;DHT22;4130;48.740;9.132;2023-04-03T00:11:25;3.50;99.90
8178;DHT22;4130;48.740;9.132;2023-04-03T00:13:52;3.50;99.90
8178;DHT22;4130;48.740;9.132;2023-04-03T00:16:19;3.50;99.90
8178;DHT22;4130;48.740;9.132;2023-04-03T00:18:46;3.50;99.90
8178;DHT22;4130;48.740;9.132;2023-04-03T00:21:13;3.50;99.90
8178;DHT22;4130;48.740;9.132;2023-04-03T00:23:40;3.50;99.90
8178;DHT22;4130;48.740;9.132;2023-04-03T00:26:09;3.50;99.90
8178;DHT22;4130;48.740;9.132;2023-04-03T00:28:36;3.40;99.90
8178;DHT22;4130;48.740;9.132;2023-04-03T00:31:02;3.50;99.90
8178;DHT22;4130;48.740;9.132;2023-04-03T00:33:29;3.50;99.90
8178;DHT22;4130;48.740;9.132;2023-04-03T00:35:56;3.50;99.90
8178;DHT22;4130;48.740;9.132;2023-04-03T00:38:23;3.50;99.90
8178;DHT22;4130;48.740;9.132;2023-04-03T00:40:50;3.50;99.90
8178;DHT22;4130;48.740;9.132;2023-04-03T00:43:20;3.40;99.90
8178;DHT22;4130;48.740;9.132;2023-04-03T00:45:50;3.40;99.90
8178;DHT22;4130;48.740;9.132;2023-04-03T00:48:20;3.40;99.90
8178;DHT22;4130;48.740;9.132;2023-04-03T00:50:47;3.40;99.90
8178;DHT22;4130;48.740;9.132;2023-04-03T00:53:18;3.30;99.90
8178;DHT22;4130;48.740;9.132;2023-04-03T00:55:47;3.30;99.90
8178;DHT22;4130;48.740;9.132;2023-04-03T00:58:15;3.30;99.90
8178;DHT22;4130;48.740;9.132;2023-04-03T01:00:50;3.40;99.90
8178;DHT22;4130;48.740;9.132;2023-04-03T01:03:19;3.20;99.90
8178;DHT22;4130;48.740;9.132;2023-04-03T01:05:45;3.20;99.90
8178;DHT22;4130;48.740;9.132;2023-04-03T01:08:12;3.20;99.90
8178;DHT22;4130;48.740;9.132;2023-04-03T01:10:39;3.20;99.90
8178;DHT22;4130;48.740;9.132;2023-04-03T01:13:19;3.20;99.90
8178;DHT22;4130;48.740;9.132;2023-04-03T01:15:47;3.20;99.90
8178;DHT22;4130;48.740;9.132;2023-04-03T01:18:14;3.30;99.90
8178;DHT22;4130;48.740;9.132;2023-04-03T01:21:25;3.20;99.90
8178;DHT22;4130;48.740;9.132;2023-04-03T01:24:02;3.20;99.90
8178;DHT22;4130;48.740;9.132;2023-04-03T01:26:31;3.20;99.90
8178;DHT22;4130;48.740;9.132;2023-04-03T01:28:59;3.20;99.90
8178;DHT22;4130;48.740;9.132;2023-04-03T01:31:30;3.10;99.90
8178;DHT22;4130;48.740;9.132;2023-04-03T01:33:59;3.10;99.90
8178;DHT22;4130;48.740;9.132;2023-04-03T01:36:27;3.00;99.90
8178;DHT22;4130;48.740;9.132;2023-04-03T01:38:55;3.00;99.90
8178;DHT22;4130;48.740;9.132;2023-04-03T01:41:23;3.00;99.90
8178;DHT22;4130;48.740;9.132;2023-04-03T01:43:51;3.00;99.90
8178;DHT22;4130;48.740;9.132;2023-04-03T01:46:18;3.00;99.90
8178;DHT22;4130;48.740;9.132;2023-04-03T01:48:45;2.90;99.90
8178;DHT22;4130;48.740;9.132;2023-04-03T01:51:13;3.00;99.90
8178;DHT22;4130;48.740;9.132;2023-04-03T01:53:41;2.90;99.90
8178;DHT22;4130;48.740;9.132;2023-04-03T01:56:08;2.90;99.90
8178;DHT22;4130;48.740;9.132;2023-04-03T01:58:35;2.90;99.90
8178;DHT22;4130;48.740;9.132;2023-04-03T02:01:02;2.90;99.90
8178;DHT22;4130;48.740;9.132;2023-04-03T02:03:29;2.90;99.90
8178;DHT22;4130;48.740;9.132;2023-04-03T02:05:56;2.90;99.90
8178;DHT22;4130;48.740;9.132;2023-04-03T02:08:24;2.80;99.90
8178;DHT22;4130;48.740;9.132;2023-04-03T02:10:51;2.80;99.90
8178;DHT22;4130;48.740;9.132;2023-04-03T02:13:18;2.80;99.90
8178;DHT22;4130;48.740;9.132;2023-04-03T02:15:45;2.80;99.90
8178;DHT22;4130;48.740;9.132;2023-04-03T02:18:12;2.80;99.90
8178;DHT22;4130;48.740;9.132;2023-04-03T02:20:39;2.80;99.90
8178;DHT22;4130;48.740;9.132;2023-04-03T02:23:06;2.80;99.90
8178;DHT22;4130;48.740;9.132;2023-04-03T02:25:34;2.80;99.90
8178;DHT22;4130;48.740;9.132;2023-04-03T02:28:00;2.90;99.90
8178;DHT22;4130;48.740;9.132;2023-04-03T02:30:27;2.90;99.90
8178;DHT22;4130;48.740;9.132;2023-04-03T02:32:54;2.90;99.90
8178;DHT22;4130;48.740;9.132;2023-04-03T02:35:21;2.90;99.90
8178;DHT22;4130;48.740;9.132;2023-04-03T02:37:48;2.90;99.90
8178;DHT22;4130;48.740;9.132;2023-04-03T02:40:15;2.90;99.90
8178;DHT22;4130;48.740;9.132;2023-04-03T02:42:43;2.90;99.90
8178;DHT22;4130;48.740;9.132;2023-04-03T02:45:10;2.90;99.90
8178;DHT22;4130;48.740;9.132;2023-04-03T02:47:37;2.90;99.90
8178;DHT22;4130;48.740;9.132;2023-04-03T02:50:04;2.90;99.90
8178;DHT22;4130;48.740;9.132;2023-04-03T02:52:31;2.90;99.90
8178;DHT22;4130;48.740;9.132;2023-04-03T02:54:58;2.90;99.90
8178;DHT22;4130;48.740;9.132;2023-04-03T02:57:25;3.00;99.90
8178;DHT22;4130;48.740;9.132;2023-04-03T02:59:53;3.00;99.90
8178;DHT22;4130;48.740;9.132;2023-04-03T03:02:20;3.00;99.90
8178;DHT22;4130;48.740;9.132;2023-04-03T03:04:46;3.00;99.90
8178;DHT22;4130;48.740;9.132;2023-04-03T03:07:13;3.10;99.90
8178;DHT22;4130;48.740;9.132;2023-04-03T03:09:40;3.10;99.90
8178;DHT22;4130;48.740;9.132;2023-04-03T03:12:07;3.00;99.90
8178;DHT22;4130;48.740;9.132;2023-04-03T03:14:33;3.00;99.90
8178;DHT22;4130;48.740;9.132;2023-04-03T03:17:01;3.10;99.90
8178;DHT22;4130;48.740;9.132;2023-04-03T03:19:28;3.00;99.90
8178;DHT22;4130;48.740;9.132;2023-04-03T03:21:55;3.00;99.90
8178;DHT22;4130;48.740;9.132;2023-04-03T03:24:22;3.00;99.90
8178;DHT22;4130;48.740;9.132;2023-04-03T03:26:49;3.00;99.90
8178;DHT22;4130;48.740;9.132;2023-04-03T03:29:15;3.00;99.90
8178;DHT22;4130;48.740;9.132;2023-04-03T03:31:42;3.00;99.90
8178;DHT22;4130;48.740;9.132;2023-04-03T03:34:10;3.00;99.90
8178;DHT22;4130;48.740;9.132;2023-04-03T03:36:37;2.90;99.90
8178;DHT22;4130;48.740;9.132;2023-04-03T03:39:04;2.90;99.90
8178;DHT22;4130;48.740;9.132;2023-04-03T03:41:31;2.90;99.90
8178;DHT22;4130;48.740;9.132;2023-04-03T03:43:57;2.90;99.90
8178;DHT22;4130;48.740;9.132;2023-04-03T03:46:24;2.90;99.90
8178;DHT22;4130;48.740;9.132;2023-04-03T03:48:51;2.90;99.90
8178;DHT22;4130;48.740;9.132;2023-04-03T03:51:19;3.00;99.90
8178;DHT22;4130;48.740;9.132;2023-04-03T03:53:45;2.90;99.90
8178;DHT22;4130;48.740;9.132;2023-04-03T03:56:12;2.90;99.90
8178;DHT22;4130;48.740;9.132;2023-04-03T03:58:39;3.00;99.90
8178;DHT22;4130;48.740;9.132;2023-04-03T04:01:07;2.90;99.90
8178;DHT22;4130;48.740;9.132;2023-04-03T04:03:34;2.90;99.90
8178;DHT22;4130;48.740;9.132;2023-04-03T04:06:00;2.90;99.90
8178;DHT22;4130;48.740;9.132;2023-04-03T04:08:28;2.90;99.90
8178;DHT22;4130;48.740;9.132;2023-04-03T04:10:55;2.90;99.90
8178;DHT22;4130;48.740;9.132;2023-04-03T04:13:22;2.90;99.90
8178;DHT22;4130;48.740;9.132;2023-04-03T04:15:49;2.90;99.90
8178;DHT22;4130;48.740;9.132;2023-04-03T04:18:15;2.80;99.90
8178;DHT22;4130;48.740;9.132;2023-04-03T04:20:45;2.80;99.90
8178;DHT22;4130;48.740;9.132;2023-04-03T04:23:11;2.90;99.90
8178;DHT22;4130;48.740;9.132;2023-04-03T04:25:39;2.90;99.90
8178;DHT22;4130;48.740;9.132;2023-04-03T04:28:06;2.90;99.90
8178;DHT22;4130;48.740;9.132;2023-04-03T04:30:33;2.90;99.90
8178;DHT22;4130;48.740;9.132;2023-04-03T04:33:00;2.90;99.90
8178;DHT22;4130;48.740;9.132;2023-04-03T04:35:26;2.90;99.90
8178;DHT22;4130;48.740;9.132;2023-04-03T04:37:53;2.90;99.90
8178;DHT22;4130;48.740;9.132;2023-04-03T04:40:20;2.90;99.90
8178;DHT22;4130;48.740;9.132;2023-04-03T04:42:48;2.90;99.90
8178;DHT22;4130;48.740;9.132;2023-04-03T04:45:15;2.90;99.90
8178;DHT22;4130;48.740;9.132;2023-04-03T04:47:42;2.90;99.90
8178;DHT22;4130;48.740;9.132;2023-04-03T04:50:09;2.90;99.90
8178;DHT22;4130;48.740;9.132;2023-04-03T04:52:36;2.90;99.90
8178;DHT22;4130;48.740;9.132;2023-04-03T04:55:04;2.90;99.90
8178;DHT22;4130;48.740;9.132;2023-04-03T04:57:31;2.90;99.90
8178;DHT22;4130;48.740;9.132;2023-04-03T04:59:59;2.90;99.90
8178;DHT22;4130;48.740;9.132;2023-04-03T05:02:26;2.80;99.90
8178;DHT22;4130;48.740;9.132;2023-04-03T05:04:52;2.70;99.90
8178;DHT22;4130;48.740;9.132;2023-04-03T05:07:19;2.70;99.90
8178;DHT22;4130;48.740;9.132;2023-04-03T05:09:46;2.70;99.90
8178;DHT22;4130;48.740;9.132;2023-04-03T05:12:15;2.70;99.90
8178;DHT22;4130;48.740;9.132;2023-04-03T05:14:42;2.80;99.90
8178;DHT22;4130;48.740;9.132;2023-04-03T05:17:10;2.80;99.90
8178;DHT22;4130;48.740;9.132;2023-04-03T05:19:38;2.90;99.90
8178;DHT22;4130;48.740;9.132;2023-04-03T05:22:05;2.90;99.90
8178;DHT22;4130;48.740;9.132;2023-04-03T05:24:31;2.90;99.90
8178;DHT22;4130;48.740;9.132;2023-04-03T05:26:58;3.00;99.90
8178;DHT22;4130;48.740;9.132;2023-04-03T05:29:25;3.00;99.90
8178;DHT22;4130;48.740;9.132;2023-04-03T05:31:52;3.00;99.90
8178;DHT22;4130;48.740;9.132;2023-04-03T05:34:20;3.00;99.90
8178;DHT22;4130;48.740;9.132;2023-04-03T05:36:47;3.10;99.90
8178;DHT22;4130;48.740;9.132;2023-04-03T05:39:14;3.00;99.90
8178;DHT22;4130;48.740;9.132;2023-04-03T05:41:41;3.10;99.90
8178;DHT22;4130;48.740;9.132;2023-04-03T05:44:08;3.10;99.90
8178;DHT22;4130;48.740;9.132;2023-04-03T05:46:35;3.10;99.90
8178;DHT22;4130;48.740;9.132;2023-04-03T05:49:02;3.20;99.90
8178;DHT22;4130;48.740;9.132;2023-04-03T05:51:33;3.20;99.90
8178;DHT22;4130;48.740;9.132;2023-04-03T05:54:06;3.20;99.90
8178;DHT22;4130;48.740;9.132;2023-04-03T05:56:33;3.20;99.90
8178;DHT22;4130;48.740;9.132;2023-04-03T05:59:00;3.20;99.90
8178;DHT22;4130;48.740;9.132;2023-04-03T06:01:26;3.00;99.90
8178;DHT22;4130;48.740;9.132;2023-04-03T06:03:53;3.00;99.90
8178;DHT22;4130;48.740;9.132;2023-04-03T06:06:21;2.90;99.90
8178;DHT22;4130;48.740;9.132;2023-04-03T06:08:49;2.80;99.90
8178;DHT22;4130;48.740;9.132;2023-04-03T06:11:16;2.80;99.90
8178;DHT22;4130;48.740;9.132;2023-04-03T06:13:43;2.80;99.90
8178;DHT22;4130;48.740;9.132;2023-04-03T06:16:12;2.80;99.90
8178;DHT22;4130;48.740;9.132;2023-04-03T06:18:40;2.80;99.90
8178;DHT22;4130;48.740;9.132;2023-04-03T06:21:07;2.90;99.90
8178;DHT22;4130;48.740;9.132;2023-04-03T06:23:34;3.00;99.90
8178;DHT22;4130;48.740;9.132;2023-04-03T06:26:02;3.10;99.90
8178;DHT22;4130;48.740;9.132;2023-04-03T06:28:29;3.20;99.90
8178;DHT22;4130;48.740;9.132;2023-04-03T06:30:56;3.30;99.90
8178;DHT22;4130;48.740;9.132;2023-04-03T06:33:22;3.30;99.90
8178;DHT22;4130;48.740;9.132;2023-04-03T06:35:49;3.50;99.90
8178;DHT22;4130;48.740;9.132;2023-04-03T06:38:16;3.60;99.90
8178;DHT22;4130;48.740;9.132;2023-04-03T06:40:44;3.60;99.90
8178;DHT22;4130;48.740;9.132;2023-04-03T06:43:12;3.70;99.90
8178;DHT22;4130;48.740;9.132;2023-04-03T06:45:39;3.70;99.90
8178;DHT22;4130;48.740;9.132;2023-04-03T06:48:06;3.90;99.90
8178;DHT22;4130;48.740;9.132;2023-04-03T06:50:32;4.00;99.90
8178;DHT22;4130;48.740;9.132;2023-04-03T06:52:59;4.10;99.90
8178;DHT22;4130;48.740;9.132;2023-04-03T06:55:26;4.20;99.90
8178;DHT22;4130;48.740;9.132;2023-04-03T06:57:53;4.20;99.90
8178;DHT22;4130;48.740;9.132;2023-04-03T07:00:21;4.30;99.90
8178;DHT22;4130;48.740;9.132;2023-04-03T07:02:48;4.20;99.90
8178;DHT22;4130;48.740;9.132;2023-04-03T07:05:15;4.40;99.90
8178;DHT22;4130;48.740;9.132;2023-04-03T07:07:41;4.40;99.90
8178;DHT22;4130;48.740;9.132;2023-04-03T07:10:09;4.50;99.90
8178;DHT22;4130;48.740;9.132;2023-04-03T07:12:36;4.60;99.90
8178;DHT22;4130;48.740;9.132;2023-04-03T07:15:04;4.60;99.90
8178;DHT22;4130;48.740;9.132;2023-04-03T07:17:32;4.60;99.90
8178;DHT22;4130;48.740;9.132;2023-04-03T07:19:59;4.60;99.90
8178;DHT22;4130;48.740;9.132;2023-04-03T07:22:26;4.60;99.90
8178;DHT22;4130;48.740;9.132;2023-04-03T07:24:52;4.80;99.90
8178;DHT22;4130;48.740;9.132;2023-04-03T07:27:19;4.90;99.90
8178;DHT22;4130;48.740;9.132;2023-04-03T07:29:46;5.10;99.90
8178;DHT22;4130;48.740;9.132;2023-04-03T07:32:14;5.20;99.90
8178;DHT22;4130;48.740;9.132;2023-04-03T07:34:42;5.20;99.90
8178;DHT22;4130;48.740;9.132;2023-04-03T07:37:10;5.30;99.90
8178;DHT22;4130;48.740;9.132;2023-04-03T07:39:37;5.40;99.90
8178;DHT22;4130;48.740;9.132;2023-04-03T07:42:03;5.50;99.90
8178;DHT22;4130;48.740;9.132;2023-04-03T07:44:30;5.70;99.90
8178;DHT22;4130;48.740;9.132;2023-04-03T07:46:57;5.80;99.90
8178;DHT22;4130;48.740;9.132;2023-04-03T07:49:25;5.80;99.90
8178;DHT22;4130;48.740;9.132;2023-04-03T07:51:54;5.90;99.90
8178;DHT22;4130;48.740;9.132;2023-04-03T07:54:20;5.90;99.90
8178;DHT22;4130;48.740;9.132;2023-04-03T07:56:48;5.90;99.90
8178;DHT22;4130;48.740;9.132;2023-04-03T07:59:15;5.70;99.90
8178;DHT22;4130;48.740;9.132;2023-04-03T08:01:42;5.80;99.90
8178;DHT22;4130;48.740;9.132;2023-04-03T08:04:09;5.70;99.90
8178;DHT22;4130;48.740;9.132;2023-04-03T08:06:35;5.80;99.90
8178;DHT22;4130;48.740;9.132;2023-04-03T08:09:04;5.90;99.90
8178;DHT22;4130;48.740;9.132;2023-04-03T08:11:31;6.00;99.90
8178;DHT22;4130;48.740;9.132;2023-04-03T08:13:57;6.10;99.90
8178;DHT22;4130;48.740;9.132;2023-04-03T08:16:24;6.20;99.90
8178;DHT22;4130;48.740;9.132;2023-04-03T08:18:53;6.10;99.90
8178;DHT22;4130;48.740;9.132;2023-04-03T08:21:20;6.10;99.90
8178;DHT22;4130;48.740;9.132;2023-04-03T08:23:49;6.20;99.90
8178;DHT22;4130;48.740;9.132;2023-04-03T08:26:19;6.40;99.90
8178;DHT22;4130;48.740;9.132;2023-04-03T08:28:46;6.50;99.90
8178;DHT22;4130;48.740;9.132;2023-04-03T08:31:15;6.60;99.90
8178;DHT22;4130;48.740;9.132;2023-04-03T08:33:44;6.80;99.90
8178;DHT22;4130;48.740;9.132;2023-04-03T08:36:17;6.90;99.90
8178;DHT22;4130;48.740;9.132;2023-04-03T08:38:45;6.80;99.90
8178;DHT22;4130;48.740;9.132;2023-04-03T08:41:15;6.80;99.90
8178;DHT22;4130;48.740;9.132;2023-04-03T08:43:56;6.80;99.90
8178;DHT22;4130;48.740;9.132;2023-04-03T08:46:28;6.70;99.90
8178;DHT22;4130;48.740;9.132;2023-04-03T08:48:59;6.60;99.90
8178;DHT22;4130;48.740;9.132;2023-04-03T08:51:26;6.70;99.90
8178;DHT22;4130;48.740;9.132;2023-04-03T08:53:56;6.70;99.90
8178;DHT22;4130;48.740;9.132;2023-04-03T08:56:26;6.80;99.90
8178;DHT22;4130;48.740;9.132;2023-04-03T08:58:57;7.00;99.90
8178;DHT22;4130;48.740;9.132;2023-04-03T09:01:27;7.00;99.90
8178;DHT22;4130;48.740;9.132;2023-04-03T09:03:56;7.20;99.90
8178;DHT22;4130;48.740;9.132;2023-04-03T09:06:25;7.20;99.90
8178;DHT22;4130;48.740;9.132;2023-04-03T09:09:06;7.40;99.90
8178;DHT22;4130;48.740;9.132;2023-04-03T09:11:47;7.40;99.90
8178;DHT22;4130;48.740;9.132;2023-04-03T09:14:22;7.50;99.90
8178;DHT22;4130;48.740;9.132;2023-04-03T09:16:55;7.70;99.90
8178;DHT22;4130;48.740;9.132;2023-04-03T09:19:30;8.00;99.90
8178;DHT22;4130;48.740;9.132;2023-04-03T09:22:07;8.10;99.90
8178;DHT22;4130;48.740;9.132;2023-04-03T09:24:37;8.00;99.90
8178;DHT22;4130;48.740;9.132;2023-04-03T09:27:05;7.90;99.90
8178;DHT22;4130;48.740;9.132;2023-04-03T09:29:37;7.90;99.90
8178;DHT22;4130;48.740;9.132;2023-04-03T09:32:19;7.90;99.60
8178;DHT22;4130;48.740;9.132;2023-04-03T09:34:48;8.00;99.90
8178;DHT22;4130;48.740;9.132;2023-04-03T09:37:38;8.10;99.90
8178;DHT22;4130;48.740;9.132;2023-04-03T09:40:12;8.30;99.90
8178;DHT22;4130;48.740;9.132;2023-04-03T09:42:54;8.50;99.90
8178;DHT22;4130;48.740;9.132;2023-04-03T09:45:25;8.60;99.90
8178;DHT22;4130;48.740;9.132;2023-04-03T09:48:07;8.80;99.90
8178;DHT22;4130;48.740;9.132;2023-04-03T09:50:34;8.60;99.00
8178;DHT22;4130;48.740;9.132;2023-04-03T09:53:06;8.60;99.20
8178;DHT22;4130;48.740;9.132;2023-04-03T09:55:42;8.60;98.70
8178;DHT22;4130;48.740;9.132;2023-04-03T09:58:24;8.70;99.60
8178;DHT22;4130;48.740;9.132;2023-04-03T10:00:56;8.60;98.80
8178;DHT22;4130;48.740;9.132;2023-04-03T10:03:26;8.50;98.50
8178;DHT22;4130;48.740;9.132;2023-04-03T10:05:54;8.10;98.20
8178;DHT22;4130;48.740;9.132;2023-04-03T10:08:25;7.70;98.80
8178;DHT22;4130;48.740;9.132;2023-04-03T10:11:08;7.40;98.80
8178;DHT22;4130;48.740;9.132;2023-04-03T10:13:35;7.20;98.60
8178;DHT22;4130;48.740;9.132;2023-04-03T10:16:07;7.00;98.50
8178;DHT22;4130;48.740;9.132;2023-04-03T10:18:40;7.00;99.70
8178;DHT22;4130;48.740;9.132;2023-04-03T10:21:12;6.90;98.70
8178;DHT22;4130;48.740;9.132;2023-04-03T10:23:45;6.90;99.80
8178;DHT22;4130;48.740;9.132;2023-04-03T10:26:20;6.80;99.60
8178;DHT22;4130;48.740;9.132;2023-04-03T10:28:55;6.80;99.70
8178;DHT22;4130;48.740;9.132;2023-04-03T10:31:28;6.70;99.90
8178;DHT22;4130;48.740;9.132;2023-04-03T10:34:03;6.80;99.90
8178;DHT22;4130;48.740;9.132;2023-04-03T10:36:38;6.80;99.50
8178;DHT22;4130;48.740;9.132;2023-04-03T10:39:17;6.90;98.50
8178;DHT22;4130;48.740;9.132;2023-04-03T10:41:59;7.00;98.60
8178;DHT22;4130;48.740;9.132;2023-04-03T10:44:31;7.30;99.50
8178;DHT22;4130;48.740;9.132;2023-04-03T10:47:09;7.50;98.90
8178;DHT22;4130;48.740;9.132;2023-04-03T10:49:48;7.30;98.30
8178;DHT22;4130;48.740;9.132;2023-04-03T10:52:22;7.10;98.20
8178;DHT22;4130;48.740;9.132;2023-04-03T10:54:57;6.80;98.50
8178;DHT22;4130;48.740;9.132;2023-04-03T10:57:27;6.60;98.00
8178;DHT22;4130;48.740;9.132;2023-04-03T10:59:57;6.40;98.90
8178;DHT22;4130;48.740;9.132;2023-04-03T11:02:28;6.40;98.50
8178;DHT22;4130;48.740;9.132;2023-04-03T11:05:00;6.50;99.10
8178;DHT22;4130;48.740;9.132;2023-04-03T11:07:29;6.50;97.60
8178;DHT22;4130;48.740;9.132;2023-04-03T11:10:02;6.40;98.60
8178;DHT22;4130;48.740;9.132;2023-04-03T11:12:38;6.70;98.70
8178;DHT22;4130;48.740;9.132;2023-04-03T11:15:11;6.50;98.50
8178;DHT22;4130;48.740;9.132;2023-04-03T11:17:45;6.50;98.90
8178;DHT22;4130;48.740;9.132;2023-04-03T11:20:18;6.50;98.70
8178;DHT22;4130;48.740;9.132;2023-04-03T11:22:50;6.60;98.20
8178;DHT22;4130;48.740;9.132;2023-04-03T11:25:20;6.60;98.10
8178;DHT22;4130;48.740;9.132;2023-04-03T11:27:51;6.90;98.70
8178;DHT22;4130;48.740;9.132;2023-04-03T11:30:22;7.10;97.20
8178;DHT22;4130;48.740;9.132;2023-04-03T11:33:13;7.20;97.20
8178;DHT22;4130;48.740;9.132;2023-04-03T11:35:43;7.20;97.50
8178;DHT22;4130;48.740;9.132;2023-04-03T11:38:18;7.30;96.90
8178;DHT22;4130;48.740;9.132;2023-04-03T11:40:47;7.20;96.50
8178;DHT22;4130;48.740;9.132;2023-04-03T11:43:23;6.90;96.40
8178;DHT22;4130;48.740;9.132;2023-04-03T11:45:54;6.70;96.30
8178;DHT22;4130;48.740;9.132;2023-04-03T11:48:51;6.70;96.90
8178;DHT22;4130;48.740;9.132;2023-04-03T11:51:44;6.70;97.00
8178;DHT22;4130;48.740;9.132;2023-04-03T11:54:43;6.70;97.50
8178;DHT22;4130;48.740;9.132;2023-04-03T12:00:55;7.40;96.80
8178;DHT22;4130;48.740;9.132;2023-04-03T12:12:25;7.60;96.20
8178;DHT22;4130;48.740;9.132;2023-04-03T12:14:53;7.70;96.60
8178;DHT22;4130;48.740;9.132;2023-04-03T12:17:23;7.80;95.70
8178;DHT22;4130;48.740;9.132;2023-04-03T12:19:51;7.80;95.40
8178;DHT22;4130;48.740;9.132;2023-04-03T12:22:19;7.70;95.10
8178;DHT22;4130;48.740;9.132;2023-04-03T12:24:49;7.60;95.50
8178;DHT22;4130;48.740;9.132;2023-04-03T12:27:41;7.30;95.00
8178;DHT22;4130;48.740;9.132;2023-04-03T12:30:22;7.10;95.40
8178;DHT22;4130;48.740;9.132;2023-04-03T12:33:14;7.20;95.90
8178;DHT22;4130;48.740;9.132;2023-04-03T12:35:56;6.90;96.10
8178;DHT22;4130;48.740;9.132;2023-04-03T12:39:04;6.90;95.60
8178;DHT22;4130;48.740;9.132;2023-04-03T12:41:38;7.00;95.90
8178;DHT22;4130;48.740;9.132;2023-04-03T12:44:44;7.20;95.70
8178;DHT22;4130;48.740;9.132;2023-04-03T12:47:22;7.40;95.90
8178;DHT22;4130;48.740;9.132;2023-04-03T12:49:49;7.40;95.50
8178;DHT22;4130;48.740;9.132;2023-04-03T12:52:28;7.40;95.20
8178;DHT22;4130;48.740;9.132;2023-04-03T12:54:57;7.30;95.30
8178;DHT22;4130;48.740;9.132;2023-04-03T12:57:27;7.20;95.70
8178;DHT22;4130;48.740;9.132;2023-04-03T12:59:54;7.30;95.80
8178;DHT22;4130;48.740;9.132;2023-04-03T13:02:24;7.40;95.70
8178;DHT22;4130;48.740;9.132;2023-04-03T13:04:53;7.40;94.90
8178;DHT22;4130;48.740;9.132;2023-04-03T13:07:22;7.50;95.00
8178;DHT22;4130;48.740;9.132;2023-04-03T13:10:14;7.60;94.50
8178;DHT22;4130;48.740;9.132;2023-04-03T13:12:49;7.70;94.40
8178;DHT22;4130;48.740;9.132;2023-04-03T13:15:18;7.70;94.10
8178;DHT22;4130;48.740;9.132;2023-04-03T13:17:45;7.80;94.20
8178;DHT22;4130;48.740;9.132;2023-04-03T13:20:17;7.90;93.80
8178;DHT22;4130;48.740;9.132;2023-04-03T13:22:49;7.90;93.80
8178;DHT22;4130;48.740;9.132;2023-04-03T13:25:17;8.00;93.70
8178;DHT22;4130;48.740;9.132;2023-04-03T13:27:48;8.50;95.10
8178;DHT22;4130;48.740;9.132;2023-04-03T13:30:26;9.00;94.40
8178;DHT22;4130;48.740;9.132;2023-04-03T13:32:54;9.30;92.80
8178;DHT22;4130;48.740;9.132;2023-04-03T13:35:31;9.50;93.00
8178;DHT22;4130;48.740;9.132;2023-04-03T13:38:00;9.60;93.50
8178;DHT22;4130;48.740;9.132;2023-04-03T13:40:27;9.70;92.60
8178;DHT22;4130;48.740;9.132;2023-04-03T13:43:05;9.90;92.50
8178;DHT22;4130;48.740;9.132;2023-04-03T13:45:32;9.80;92.80
8178;DHT22;4130;48.740;9.132;2023-04-03T13:48:15;9.70;93.30
8178;DHT22;4130;48.740;9.132;2023-04-03T13:50:59;9.70;92.10
8178;DHT22;4130;48.740;9.132;2023-04-03T13:53:26;9.40;91.70
8178;DHT22;4130;48.740;9.132;2023-04-03T13:56:06;9.30;91.90
8178;DHT22;4130;48.740;9.132;2023-04-03T13:58:35;9.20;92.20
8178;DHT22;4130;48.740;9.132;2023-04-03T14:01:09;9.10;92.30
8178;DHT22;4130;48.740;9.132;2023-04-03T14:03:42;8.80;91.50
8178;DHT22;4130;48.740;9.132;2023-04-03T14:06:11;8.80;91.40
8178;DHT22;4130;48.740;9.132;2023-04-03T14:08:38;8.50;90.30
8178;DHT22;4130;48.740;9.132;2023-04-03T14:11:05;8.50;92.30
8178;DHT22;4130;48.740;9.132;2023-04-03T14:13:34;8.50;92.30
8178;DHT22;4130;48.740;9.132;2023-04-03T14:16:01;8.60;91.10
8178;DHT22;4130;48.740;9.132;2023-04-03T14:18:28;8.40;91.90
8178;DHT22;4130;48.740;9.132;2023-04-03T14:20:54;8.40;92.20
8178;DHT22;4130;48.740;9.132;2023-04-03T14:23:21;8.50;92.10
8178;DHT22;4130;48.740;9.132;2023-04-03T14:25:48;8.30;92.10
8178;DHT22;4130;48.740;9.132;2023-04-03T14:28:53;8.20;91.80
8178;DHT22;4130;48.740;9.132;2023-04-03T14:31:22;8.00;91.40
8178;DHT22;4130;48.740;9.132;2023-04-03T14:33:49;7.90;91.80
8178;DHT22;4130;48.740;9.132;2023-04-03T14:36:18;7.70;92.40
8178;DHT22;4130;48.740;9.132;2023-04-03T14:38:46;7.70;92.00
8178;DHT22;4130;48.740;9.132;2023-04-03T14:41:17;7.80;92.30
8178;DHT22;4130;48.740;9.132;2023-04-03T14:43:45;7.80;92.60
8178;DHT22;4130;48.740;9.132;2023-04-03T14:46:17;7.70;92.50
8178;DHT22;4130;48.740;9.132;2023-04-03T14:48:44;7.50;92.70
8178;DHT22;4130;48.740;9.132;2023-04-03T14:51:13;7.50;92.20
8178;DHT22;4130;48.740;9.132;2023-04-03T14:53:42;7.70;93.00
8178;DHT22;4130;48.740;9.132;2023-04-03T14:56:12;8.00;92.40
8178;DHT22;4130;48.740;9.132;2023-04-03T14:58:40;8.50;92.10
8178;DHT22;4130;48.740;9.132;2023-04-03T15:01:09;8.80;90.60
8178;DHT22;4130;48.740;9.132;2023-04-03T15:03:38;8.90;90.80
8178;DHT22;4130;48.740;9.132;2023-04-03T15:06:05;8.70;90.50
8178;DHT22;4130;48.740;9.132;2023-04-03T15:08:32;8.50;90.80
8178;DHT22;4130;48.740;9.132;2023-04-03T15:10:59;8.20;90.30
8178;DHT22;4130;48.740;9.132;2023-04-03T15:13:26;7.80;90.50
8178;DHT22;4130;48.740;9.132;2023-04-03T15:15:53;7.70;90.90
8178;DHT22;4130;48.740;9.132;2023-04-03T15:18:23;7.60;91.00
8178;DHT22;4130;48.740;9.132;2023-04-03T15:20:53;7.70;91.80
8178;DHT22;4130;48.740;9.132;2023-04-03T15:23:20;7.80;91.20
8178;DHT22;4130;48.740;9.132;2023-04-03T15:25:52;8.10;91.10
8178;DHT22;4130;48.740;9.132;2023-04-03T15:28:23;8.00;91.20
8178;DHT22;4130;48.740;9.132;2023-04-03T15:30:52;8.00;90.80
8178;DHT22;4130;48.740;9.132;2023-04-03T15:33:19;8.10;91.60
8178;DHT22;4130;48.740;9.132;2023-04-03T15:35:46;8.20;91.30
8178;DHT22;4130;48.740;9.132;2023-04-03T15:38:14;8.20;90.70
8178;DHT22;4130;48.740;9.132;2023-04-03T15:40:41;8.00;89.90
8178;DHT22;4130;48.740;9.132;2023-04-03T15:43:09;8.00;90.40
8178;DHT22;4130;48.740;9.132;2023-04-03T15:45:37;7.90;90.90
8178;DHT22;4130;48.740;9.132;2023-04-03T15:48:04;7.90;90.20
8178;DHT22;4130;48.740;9.132;2023-04-03T15:50:33;7.60;89.90
8178;DHT22;4130;48.740;9.132;2023-04-03T15:53:00;7.40;90.40
8178;DHT22;4130;48.740;9.132;2023-04-03T15:55:30;7.10;90.90
8178;DHT22;4130;48.740;9.132;2023-04-03T15:57:57;6.70;90.10
8178;DHT22;4130;48.740;9.132;2023-04-03T16:00:24;6.40;90.60
8178;DHT22;4130;48.740;9.132;2023-04-03T16:02:53;6.10;90.90
8178;DHT22;4130;48.740;9.132;2023-04-03T16:05:21;6.10;90.50
8178;DHT22;4130;48.740;9.132;2023-04-03T16:07:48;6.00;90.50
8178;DHT22;4130;48.740;9.132;2023-04-03T16:10:16;6.10;90.80
8178;DHT22;4130;48.740;9.132;2023-04-03T16:12:45;6.30;91.20
8178;DHT22;4130;48.740;9.132;2023-04-03T16:15:12;6.60;91.20
8178;DHT22;4130;48.740;9.132;2023-04-03T16:17:40;6.80;91.10
8178;DHT22;4130;48.740;9.132;2023-04-03T16:20:09;7.00;91.10
8178;DHT22;4130;48.740;9.132;2023-04-03T16:22:36;7.20;91.00
8178;DHT22;4130;48.740;9.132;2023-04-03T16:25:05;7.40;90.50
8178;DHT22;4130;48.740;9.132;2023-04-03T16:27:32;7.40;90.30
8178;DHT22;4130;48.740;9.132;2023-04-03T16:30:01;7.60;90.60
8178;DHT22;4130;48.740;9.132;2023-04-03T16:32:29;7.40;90.10
8178;DHT22;4130;48.740;9.132;2023-04-03T16:34:57;7.30;89.50
8178;DHT22;4130;48.740;9.132;2023-04-03T16:37:28;7.00;89.50
8178;DHT22;4130;48.740;9.132;2023-04-03T16:39:55;6.70;90.20
8178;DHT22;4130;48.740;9.132;2023-04-03T16:42:22;6.40;89.50
8178;DHT22;4130;48.740;9.132;2023-04-03T16:44:49;6.10;90.20
8178;DHT22;4130;48.740;9.132;2023-04-03T16:47:17;5.90;90.70